createdAt,value
2018-03-26T00:00:44.024Z,66.97
2018-03-26T00:01:46.477Z,60.45
2018-03-26T00:02:48.944Z,69.47
2018-03-26T00:03:51.416Z,73.57
2018-03-26T00:04:53.896Z,63.38
2018-03-26T00:05:56.381Z,66.47
2018-03-26T00:06:59.178Z,66.22
2018-03-26T00:08:01.665Z,67.00
2018-03-26T00:09:04.894Z,64.18
2018-03-26T00:10:08.138Z,61.37
2018-03-26T00:11:11.424Z,63.10
2018-03-26T00:12:13.918Z,62.30
2018-03-26T00:13:17.165Z,66.53
2018-03-26T00:14:19.624Z,65.53
2018-03-26T00:15:22.095Z,65.07
2018-03-26T00:16:25.356Z,64.32
2018-03-26T00:17:27.842Z,66.15
2018-03-26T00:18:30.314Z,66.18
2018-03-26T00:19:33.546Z,59.63
2018-03-26T00:20:36.011Z,66.75
2018-03-26T00:21:38.496Z,69.57
2018-03-26T00:22:41.033Z,68.80
2018-03-26T00:23:43.570Z,66.45
2018-03-26T00:24:46.041Z,71.85
2018-03-26T00:25:48.610Z,66.47
2018-03-26T00:26:51.147Z,70.70
2018-03-26T00:27:53.630Z,70.57
2018-03-26T00:28:56.096Z,68.10
2018-03-26T00:29:58.590Z,66.40
2018-03-26T00:31:01.868Z,67.70
2018-03-26T00:32:04.332Z,68.35
2018-03-26T00:33:06.900Z,64.65
2018-03-26T00:34:09.384Z,68.05
2018-03-26T00:35:12.909Z,70.70
2018-03-26T00:36:15.522Z,68.55
2018-03-26T00:37:18.010Z,74.80
2018-03-26T00:38:21.255Z,73.03
2018-03-26T00:39:24.481Z,64.90
2018-03-26T00:40:26.956Z,67.22
2018-03-26T00:41:29.465Z,67.47
2018-03-26T00:42:32.388Z,69.70
2018-03-26T00:43:34.933Z,67.60
2018-03-26T00:44:37.423Z,63.70
2018-03-26T00:45:40.669Z,67.47
2018-03-26T00:46:43.935Z,64.75
2018-03-26T00:47:46.450Z,63.67
2018-03-26T00:48:49.732Z,68.03
2018-03-26T00:49:52.198Z,65.55
2018-03-26T00:50:54.758Z,69.00
2018-03-26T00:51:57.247Z,67.57
2018-03-26T00:53:01.223Z,67.45
2018-03-26T00:54:04.470Z,68.93
2018-03-26T00:55:07.758Z,81.25
2018-03-26T00:56:11.254Z,77.75
2018-03-26T00:57:14.528Z,74.90
2018-03-26T00:58:17.019Z,67.32
2018-03-26T00:59:20.259Z,74.43
2018-03-26T01:00:22.726Z,72.35
2018-03-26T01:01:25.245Z,74.43
2018-03-26T01:02:27.748Z,68.62
2018-03-26T01:03:30.985Z,71.03
2018-03-26T01:04:34.228Z,73.75
2018-03-26T01:05:37.483Z,67.20
2018-03-26T01:06:39.978Z,68.82
2018-03-26T01:07:42.474Z,72.25
2018-03-26T01:08:44.937Z,73.35
2018-03-26T01:09:48.186Z,65.28
2018-03-26T01:10:51.423Z,67.40
2018-03-26T01:11:54.708Z,66.05
2018-03-26T01:12:57.187Z,64.97
2018-03-26T01:14:00.422Z,72.12
2018-03-26T01:15:02.898Z,68.62
2018-03-26T01:16:05.362Z,65.43
2018-03-26T01:17:07.856Z,64.50
2018-03-26T01:18:10.349Z,67.35
2018-03-26T01:19:13.576Z,68.65
2018-03-26T01:20:16.840Z,64.30
2018-03-26T01:21:19.329Z,73.97
2018-03-26T01:22:22.511Z,66.53
2018-03-26T01:23:25.019Z,67.40
2018-03-26T01:24:28.255Z,66.12
2018-03-26T01:25:31.490Z,70.62
2018-03-26T01:26:34.727Z,64.45
2018-03-26T01:27:37.967Z,68.03
2018-03-26T01:28:41.244Z,69.93
2018-03-26T01:29:43.717Z,67.00
2018-03-26T01:30:46.207Z,64.60
2018-03-26T01:31:48.660Z,67.57
2018-03-26T01:32:51.161Z,68.45
2018-03-26T01:33:53.660Z,71.30
2018-03-26T01:34:56.915Z,63.35
2018-03-26T01:35:59.431Z,70.50
2018-03-26T01:37:01.986Z,63.22
2018-03-26T01:38:04.496Z,71.70
2018-03-26T01:39:07.006Z,63.35
2018-03-26T01:40:10.257Z,64.43
2018-03-26T01:41:12.739Z,66.03
2018-03-26T01:42:15.219Z,69.87
2018-03-26T01:43:17.819Z,60.10
2018-03-26T01:44:21.107Z,70.75
2018-03-26T01:45:23.659Z,70.50
2018-03-26T01:46:26.186Z,63.75
2018-03-26T01:47:29.530Z,62.30
2018-03-26T01:48:32.005Z,66.60
2018-03-26T01:49:34.471Z,59.17
2018-03-26T01:50:36.975Z,66.53
2018-03-26T01:51:39.461Z,60.97
2018-03-26T01:52:42.707Z,64.12
2018-03-26T01:53:45.935Z,61.67
2018-03-26T01:54:49.203Z,61.03
2018-03-26T01:55:51.706Z,58.67
2018-03-26T01:56:54.999Z,58.85
2018-03-26T01:57:57.517Z,61.03
2018-03-26T01:59:00.196Z,64.00
2018-03-26T02:00:02.653Z,63.65
2018-03-26T02:01:05.159Z,62.17
2018-03-26T02:02:08.422Z,62.85
2018-03-26T02:03:10.912Z,61.75
2018-03-26T02:04:13.470Z,61.85
2018-03-26T02:05:16.360Z,66.25
2018-03-26T02:06:18.834Z,72.07
2018-03-26T02:07:21.314Z,66.95
2018-03-26T02:08:23.778Z,73.57
2018-03-26T02:09:26.279Z,64.07
2018-03-26T02:10:28.744Z,65.85
2018-03-26T02:11:31.210Z,65.07
2018-03-26T02:12:33.673Z,64.97
2018-03-26T02:13:36.205Z,63.63
2018-03-26T02:14:38.695Z,61.65
2018-03-26T02:15:41.178Z,64.00
2018-03-26T02:16:43.723Z,65.87
2018-03-26T02:17:46.236Z,62.00
2018-03-26T02:18:48.731Z,60.35
2018-03-26T02:19:51.221Z,64.12
2018-03-26T02:20:53.743Z,69.12
2018-03-26T02:21:56.227Z,61.90
2018-03-26T02:22:58.709Z,64.97
2018-03-26T02:24:02.015Z,61.00
2018-03-26T02:25:04.494Z,63.85
2018-03-26T02:26:07.726Z,62.17
2018-03-26T02:27:10.969Z,60.88
2018-03-26T02:28:14.224Z,62.90
2018-03-26T02:29:16.739Z,67.60
2018-03-26T02:30:19.260Z,65.78
2018-03-26T02:31:22.495Z,69.75
2018-03-26T02:32:24.975Z,62.88
2018-03-26T02:33:27.536Z,64.72
2018-03-26T02:34:30.099Z,61.92
2018-03-26T02:35:32.593Z,63.15
2018-03-26T02:36:35.064Z,65.10
2018-03-26T02:37:37.559Z,61.75
2018-03-26T02:38:40.820Z,65.05
2018-03-26T02:39:43.330Z,68.10
2018-03-26T02:40:46.594Z,76.25
2018-03-26T02:41:49.082Z,70.87
2018-03-26T02:42:51.538Z,71.10
2018-03-26T02:43:54.670Z,73.10
2018-03-26T02:44:58.066Z,63.55
2018-03-26T02:46:00.658Z,64.40
2018-03-26T02:47:03.129Z,61.83
2018-03-26T02:48:07.121Z,64.90
2018-03-26T02:49:10.376Z,59.85
2018-03-26T02:50:12.885Z,63.65
2018-03-26T02:51:16.144Z,63.83
2018-03-26T02:52:18.662Z,70.43
2018-03-26T02:53:21.198Z,60.17
2018-03-26T02:54:23.692Z,62.92
2018-03-26T02:55:26.265Z,69.45
2018-03-26T02:56:28.727Z,67.47
2018-03-26T02:57:31.189Z,68.37
2018-03-26T02:58:34.459Z,71.50
2018-03-26T02:59:36.932Z,66.40
2018-03-26T03:00:39.476Z,70.25
2018-03-26T03:01:42.717Z,63.03
2018-03-26T03:02:45.952Z,69.28
2018-03-26T03:03:49.218Z,66.80
2018-03-26T03:04:51.680Z,68.57
2018-03-26T03:05:54.218Z,59.97
2018-03-26T03:06:56.677Z,57.00
2018-03-26T03:07:59.925Z,55.95
2018-03-26T03:09:03.160Z,70.50
2018-03-26T03:10:06.719Z,57.80
2018-03-26T03:11:09.981Z,59.15
2018-03-26T03:12:12.456Z,63.80
2018-03-26T03:13:14.930Z,70.30
2018-03-26T03:14:17.401Z,63.05
2018-03-26T03:15:20.576Z,62.90
2018-03-26T03:16:23.819Z,56.72
2018-03-26T03:17:26.303Z,61.85
2018-03-26T03:18:28.809Z,63.72
2018-03-26T03:19:31.282Z,55.20
2018-03-26T03:20:34.567Z,59.75
2018-03-26T03:21:37.043Z,56.72
2018-03-26T03:22:40.315Z,55.42
2018-03-26T03:23:42.850Z,66.32
2018-03-26T03:24:45.429Z,60.90
2018-03-26T03:25:47.935Z,59.70
2018-03-26T03:26:50.614Z,69.75
2018-03-26T03:27:53.647Z,147.40
2018-03-26T03:28:56.958Z,54.35
2018-03-26T03:30:00.246Z,59.80
2018-03-26T03:31:03.487Z,55.17
2018-03-26T03:32:06.007Z,53.72
2018-03-26T03:33:09.243Z,55.53
2018-03-26T03:34:12.473Z,91.95
2018-03-26T03:35:14.955Z,138.57
2018-03-26T03:36:18.212Z,65.55
2018-03-26T03:37:21.464Z,59.10
2018-03-26T03:38:24.021Z,57.28
2018-03-26T03:39:27.254Z,58.53
2018-03-26T03:40:30.516Z,52.33
2018-03-26T03:41:32.996Z,58.03
2018-03-26T03:42:35.471Z,52.40
2018-03-26T03:43:37.961Z,47.35
2018-03-26T03:44:41.193Z,48.72
2018-03-26T03:45:43.729Z,51.35
2018-03-26T03:46:46.211Z,82.80
2018-03-26T03:47:48.716Z,51.80
2018-03-26T03:48:51.210Z,50.80
2018-03-26T03:49:54.473Z,52.25
2018-03-26T03:50:56.987Z,49.53
2018-03-26T03:52:00.213Z,69.50
2018-03-26T03:53:02.734Z,57.13
2018-03-26T03:54:05.209Z,49.95
2018-03-26T03:55:07.665Z,52.08
2018-03-26T03:56:10.155Z,52.80
2018-03-26T03:57:12.619Z,48.85
2018-03-26T03:58:15.144Z,52.38
2018-03-26T03:59:18.376Z,58.47
2018-03-26T04:00:20.949Z,51.70
2018-03-26T04:01:24.220Z,57.35
2018-03-26T04:02:26.687Z,53.90
2018-03-26T04:03:29.155Z,51.45
2018-03-26T04:04:31.642Z,51.13
2018-03-26T04:05:34.169Z,49.03
2018-03-26T04:06:36.655Z,56.45
2018-03-26T04:07:39.144Z,57.25
2018-03-26T04:08:42.419Z,50.78
2018-03-26T04:09:44.893Z,56.05
2018-03-26T04:10:47.386Z,63.20
2018-03-26T04:11:49.860Z,55.10
2018-03-26T04:12:53.118Z,50.53
2018-03-26T04:13:55.624Z,54.53
2018-03-26T04:14:58.861Z,53.38
2018-03-26T04:16:02.099Z,51.90
2018-03-26T04:17:04.604Z,55.15
2018-03-26T04:18:07.071Z,53.17
2018-03-26T04:19:10.303Z,53.75
2018-03-26T04:20:13.547Z,62.38
2018-03-26T04:21:16.811Z,53.80
2018-03-26T04:22:19.291Z,62.58
2018-03-26T04:23:21.747Z,53.45
2018-03-26T04:24:24.969Z,61.70
2018-03-26T04:25:28.217Z,56.22
2018-03-26T04:26:31.484Z,59.53
2018-03-26T04:27:34.057Z,64.18
2018-03-26T04:28:36.536Z,71.45
2018-03-26T04:29:39.024Z,58.47
2018-03-26T04:30:42.305Z,54.42
2018-03-26T04:31:44.818Z,54.58
2018-03-26T04:32:48.072Z,55.05
2018-03-26T04:33:50.591Z,58.47
2018-03-26T04:34:53.070Z,64.43
2018-03-26T04:35:55.545Z,60.00
2018-03-26T04:36:58.376Z,59.03
2018-03-26T04:38:00.899Z,54.03
2018-03-26T04:39:03.366Z,59.92
2018-03-26T04:40:05.878Z,56.83
2018-03-26T04:41:08.357Z,53.20
2018-03-26T04:42:11.620Z,63.90
2018-03-26T04:43:14.864Z,68.47
2018-03-26T04:44:17.567Z,65.50
2018-03-26T04:45:20.046Z,62.60
2018-03-26T04:46:22.522Z,57.03
2018-03-26T04:47:25.897Z,54.33
2018-03-26T04:48:28.388Z,57.88
2018-03-26T04:49:31.634Z,62.05
2018-03-26T04:50:34.152Z,52.08
2018-03-26T04:51:37.432Z,59.28
2018-03-26T04:52:39.931Z,63.13
2018-03-26T04:53:43.176Z,52.75
2018-03-26T04:54:46.439Z,61.83
2018-03-26T04:55:48.911Z,52.83
2018-03-26T04:56:51.410Z,52.58
2018-03-26T04:57:54.035Z,63.05
2018-03-26T04:58:56.495Z,57.50
2018-03-26T04:59:58.983Z,60.85
2018-03-26T05:01:01.511Z,52.05
2018-03-26T05:02:03.971Z,58.92
2018-03-26T05:03:06.488Z,62.25
2018-03-26T05:04:08.973Z,56.40
2018-03-26T05:05:11.443Z,55.58
2018-03-26T05:06:14.082Z,53.95
2018-03-26T05:07:16.550Z,53.65
2018-03-26T05:08:19.049Z,59.35
2018-03-26T05:09:22.281Z,63.13
2018-03-26T05:10:25.600Z,55.80
2018-03-26T05:11:28.049Z,61.08
2018-03-26T05:12:31.328Z,65.65
2018-03-26T05:13:33.842Z,58.63
2018-03-26T05:14:37.527Z,61.85
2018-03-26T05:15:40.001Z,59.53
2018-03-26T05:16:43.275Z,56.42
2018-03-26T05:17:45.741Z,52.42
2018-03-26T05:18:48.232Z,56.20
2018-03-26T05:19:50.734Z,58.85
2018-03-26T05:20:53.952Z,61.78
2018-03-26T05:21:56.518Z,56.17
2018-03-26T05:22:59.001Z,57.80
2018-03-26T05:24:01.485Z,61.80
2018-03-26T05:25:04.110Z,63.70
2018-03-26T05:26:06.604Z,56.08
2018-03-26T05:27:09.910Z,64.72
2018-03-26T05:28:12.347Z,60.03
2018-03-26T05:29:16.353Z,55.58
2018-03-26T05:30:18.834Z,57.83
2018-03-26T05:31:21.294Z,59.47
2018-03-26T05:32:23.779Z,59.53
2018-03-26T05:33:26.261Z,62.55
2018-03-26T05:34:28.731Z,61.65
2018-03-26T05:35:31.203Z,57.30
2018-03-26T05:36:33.686Z,63.83
2018-03-26T05:37:36.962Z,56.05
2018-03-26T05:38:39.463Z,61.60
2018-03-26T05:39:42.057Z,60.38
2018-03-26T05:40:44.549Z,63.72
2018-03-26T05:41:47.014Z,62.42
2018-03-26T05:42:49.488Z,58.92
2018-03-26T05:43:51.953Z,57.30
2018-03-26T05:44:54.439Z,63.17
2018-03-26T05:45:56.962Z,55.97
2018-03-26T05:46:59.424Z,59.15
2018-03-26T05:48:01.915Z,63.05
2018-03-26T05:49:04.391Z,59.05
2018-03-26T05:50:06.868Z,65.70
2018-03-26T05:51:09.400Z,68.70
2018-03-26T05:52:11.889Z,65.53
2018-03-26T05:53:14.343Z,99.65
2018-03-26T05:54:16.831Z,73.55
2018-03-26T05:55:19.298Z,82.28
2018-03-26T05:56:22.547Z,71.68
2018-03-26T05:57:25.544Z,71.72
2018-03-26T05:58:28.949Z,70.43
2018-03-26T05:59:31.439Z,67.07
2018-03-26T06:00:33.922Z,59.75
2018-03-26T06:01:36.391Z,56.95
2018-03-26T06:02:38.859Z,57.53
2018-03-26T06:03:41.333Z,54.28
2018-03-26T06:04:43.968Z,54.85
2018-03-26T06:05:46.465Z,56.60
2018-03-26T06:06:49.936Z,65.07
2018-03-26T06:07:52.456Z,56.47
2018-03-26T06:08:54.987Z,71.68
2018-03-26T06:09:58.425Z,60.25
2018-03-26T06:11:01.669Z,63.20
2018-03-26T06:12:04.908Z,57.47
2018-03-26T06:13:08.157Z,66.50
2018-03-26T06:14:11.391Z,57.88
2018-03-26T06:15:14.620Z,61.80
2018-03-26T06:16:17.881Z,67.43
2018-03-26T06:17:20.785Z,100.32
2018-03-26T06:18:23.260Z,80.30
2018-03-26T06:19:25.781Z,81.28
2018-03-26T06:20:29.032Z,71.35
2018-03-26T06:21:31.498Z,59.65
2018-03-26T06:22:33.984Z,56.15
2018-03-26T06:23:36.507Z,62.55
2018-03-26T06:24:38.985Z,58.42
2018-03-26T06:25:41.465Z,64.53
2018-03-26T06:26:43.972Z,65.25
2018-03-26T06:27:46.474Z,67.18
2018-03-26T06:28:49.714Z,66.25
2018-03-26T06:29:52.955Z,60.72
2018-03-26T06:30:56.235Z,68.93
2018-03-26T06:31:58.700Z,64.72
2018-03-26T06:33:01.162Z,58.58
2018-03-26T06:34:03.623Z,80.22
2018-03-26T06:35:06.119Z,71.22
2018-03-26T06:36:14.286Z,56.33
2018-03-26T06:37:22.428Z,58.38
2018-03-26T06:38:30.620Z,59.58
2018-03-26T06:39:33.135Z,63.72
2018-03-26T06:40:35.620Z,60.17
2018-03-26T06:41:38.960Z,61.03
2018-03-26T06:42:42.186Z,69.37
2018-03-26T06:43:44.673Z,64.07
2018-03-26T06:44:47.139Z,61.65
2018-03-26T06:45:49.599Z,60.05
2018-03-26T06:46:52.078Z,64.93
2018-03-26T06:47:54.549Z,67.10
2018-03-26T06:48:57.082Z,55.17
2018-03-26T06:49:59.560Z,67.30
2018-03-26T06:51:02.030Z,64.47
2018-03-26T06:52:04.505Z,68.53
2018-03-26T06:53:07.010Z,56.67
2018-03-26T06:54:09.550Z,60.12
2018-03-26T06:55:13.651Z,60.08
2018-03-26T06:56:16.211Z,57.00
2018-03-26T06:57:18.708Z,67.28
2018-03-26T06:58:21.196Z,64.85
2018-03-26T06:59:25.223Z,66.18
2018-03-26T07:00:27.694Z,63.67
2018-03-26T07:01:30.932Z,63.72
2018-03-26T07:02:34.192Z,64.45
2018-03-26T07:03:37.446Z,67.05
2018-03-26T07:04:39.904Z,56.20
2018-03-26T07:05:42.392Z,53.72
2018-03-26T07:06:44.884Z,59.83
2018-03-26T07:07:47.378Z,67.28
2018-03-26T07:08:49.836Z,54.83
2018-03-26T07:09:52.302Z,68.12
2018-03-26T07:10:54.768Z,63.72
2018-03-26T07:11:57.271Z,78.45
2018-03-26T07:12:59.742Z,81.85
2018-03-26T07:14:03.006Z,68.95
2018-03-26T07:15:06.258Z,79.57
2018-03-26T07:16:08.725Z,68.43
2018-03-26T07:17:11.211Z,68.18
2018-03-26T07:18:13.697Z,93.37
2018-03-26T07:19:16.201Z,61.03
2018-03-26T07:20:18.679Z,76.28
2018-03-26T07:21:21.171Z,73.05
2018-03-26T07:22:23.664Z,74.97
2018-03-26T07:23:26.975Z,142.13
2018-03-26T07:24:29.472Z,72.05
2018-03-26T07:25:32.841Z,145.15
2018-03-26T07:26:35.328Z,72.10
2018-03-26T07:27:37.800Z,122.53
2018-03-26T07:28:40.274Z,165.82
2018-03-26T07:29:43.503Z,100.22
2018-03-26T07:30:45.981Z,150.48
2018-03-26T07:31:48.615Z,156.40
2018-03-26T07:32:51.256Z,81.25
2018-03-26T07:33:53.881Z,80.25
2018-03-26T07:34:56.376Z,104.03
2018-03-26T07:35:59.677Z,113.12
2018-03-26T07:37:02.224Z,132.98
2018-03-26T07:38:06.249Z,66.50
2018-03-26T07:39:09.669Z,59.05
2018-03-26T07:40:12.155Z,83.75
2018-03-26T07:41:14.726Z,108.95
2018-03-26T07:42:17.250Z,89.47
2018-03-26T07:43:19.739Z,65.32
2018-03-26T07:44:22.264Z,84.78
2018-03-26T07:45:24.804Z,117.00
2018-03-26T07:46:27.282Z,68.70
2018-03-26T07:47:29.774Z,68.95
2018-03-26T07:48:32.323Z,70.95
2018-03-26T07:49:34.867Z,58.72
2018-03-26T07:50:37.361Z,59.92
2018-03-26T07:51:39.912Z,138.05
2018-03-26T07:52:42.713Z,110.43
2018-03-26T07:53:45.321Z,70.60
2018-03-26T07:54:47.827Z,162.60
2018-03-26T07:55:50.305Z,112.60
2018-03-26T07:56:52.805Z,98.03
2018-03-26T07:57:56.066Z,122.43
2018-03-26T07:58:58.560Z,54.42
2018-03-26T08:00:01.078Z,51.63
2018-03-26T08:01:03.600Z,77.05
2018-03-26T08:02:06.818Z,63.45
2018-03-26T08:03:09.280Z,88.25
2018-03-26T08:04:12.526Z,70.12
2018-03-26T08:05:15.790Z,71.62
2018-03-26T08:06:18.267Z,68.70
2018-03-26T08:07:21.073Z,47.35
2018-03-26T08:08:23.568Z,52.97
2018-03-26T08:09:26.138Z,51.95
2018-03-26T08:10:28.721Z,51.70
2018-03-26T08:11:31.343Z,46.15
2018-03-26T08:12:34.579Z,49.53
2018-03-26T08:13:37.140Z,64.00
2018-03-26T08:14:39.763Z,97.47
2018-03-26T08:15:42.239Z,55.78
2018-03-26T08:16:45.498Z,121.57
2018-03-26T08:17:48.735Z,65.62
2018-03-26T08:18:51.962Z,69.55
2018-03-26T08:19:54.425Z,54.92
2018-03-26T08:20:56.937Z,49.25
2018-03-26T08:22:00.213Z,69.15
2018-03-26T08:23:02.706Z,67.72
2018-03-26T08:24:05.996Z,51.85
2018-03-26T08:25:08.485Z,54.58
2018-03-26T08:26:11.817Z,59.35
2018-03-26T08:27:15.038Z,54.10
2018-03-26T08:28:17.591Z,50.55
2018-03-26T08:29:20.855Z,57.50
2018-03-26T08:30:23.381Z,52.25
2018-03-26T08:31:25.888Z,53.85
2018-03-26T08:32:28.463Z,52.25
2018-03-26T08:33:30.939Z,58.08
2018-03-26T08:34:33.450Z,96.30
2018-03-26T08:35:36.685Z,66.93
2018-03-26T08:36:39.930Z,62.50
2018-03-26T08:37:42.413Z,60.20
2018-03-26T08:38:44.906Z,61.63
2018-03-26T08:39:47.407Z,62.40
2018-03-26T08:40:50.768Z,55.00
2018-03-26T08:41:54.016Z,59.83
2018-03-26T08:42:56.525Z,63.40
2018-03-26T08:43:59.009Z,58.47
2018-03-26T08:45:01.503Z,63.20
2018-03-26T08:46:04.021Z,59.60
2018-03-26T08:47:06.936Z,65.07
2018-03-26T08:48:09.823Z,61.05
2018-03-26T08:49:12.282Z,72.93
2018-03-26T08:50:15.067Z,76.25
2018-03-26T08:51:17.446Z,70.87
2018-03-26T08:52:20.759Z,68.03
2018-03-26T08:53:23.232Z,58.67
2018-03-26T08:54:25.738Z,59.17
2018-03-26T08:55:29.063Z,61.03
2018-03-26T08:56:31.557Z,72.87
2018-03-26T08:57:34.137Z,72.78
2018-03-26T08:58:37.402Z,63.53
2018-03-26T08:59:42.886Z,60.60
2018-03-26T09:00:48.471Z,66.30
2018-03-26T09:01:52.009Z,62.95
2018-03-26T09:02:55.736Z,65.03
2018-03-26T09:03:59.145Z,62.53
2018-03-26T09:05:01.657Z,67.78
2018-03-26T09:06:04.930Z,58.60
2018-03-26T09:07:07.664Z,61.75
2018-03-26T09:08:10.233Z,81.82
2018-03-26T09:09:12.748Z,57.58
2018-03-26T09:10:15.220Z,73.53
2018-03-26T09:11:17.760Z,60.72
2018-03-26T09:12:20.279Z,57.95
2018-03-26T09:13:22.811Z,62.45
2018-03-26T09:14:25.281Z,71.28
2018-03-26T09:15:27.775Z,65.28
2018-03-26T09:16:30.263Z,63.03
2018-03-26T09:17:33.594Z,61.28
2018-03-26T09:18:36.016Z,79.78
2018-03-26T09:19:39.375Z,61.72
2018-03-26T09:20:43.411Z,62.15
2018-03-26T09:21:46.909Z,72.43
2018-03-26T09:22:49.405Z,73.78
2018-03-26T09:23:52.704Z,63.17
2018-03-26T09:24:55.201Z,61.97
2018-03-26T09:25:57.707Z,59.80
2018-03-26T09:27:00.184Z,63.13
2018-03-26T09:28:02.639Z,69.93
2018-03-26T09:29:05.914Z,56.33
2018-03-26T09:30:08.502Z,72.55
2018-03-26T09:31:11.044Z,74.82
2018-03-26T09:32:14.295Z,77.45
2018-03-26T09:33:16.778Z,63.30
2018-03-26T09:34:19.442Z,71.05
2018-03-26T09:35:22.681Z,70.07
2018-03-26T09:36:25.907Z,70.50
2018-03-26T09:37:28.508Z,70.95
2018-03-26T09:38:31.022Z,67.25
2018-03-26T09:39:33.487Z,71.25
2018-03-26T09:40:36.053Z,63.47
2018-03-26T09:41:39.308Z,77.97
2018-03-26T09:42:41.955Z,67.45
2018-03-26T09:43:45.316Z,68.18
2018-03-26T09:44:47.864Z,88.97
2018-03-26T09:45:51.094Z,70.93
2018-03-26T09:46:53.635Z,74.97
2018-03-26T09:47:56.876Z,69.75
2018-03-26T09:49:00.137Z,72.72
2018-03-26T09:50:03.430Z,72.10
2018-03-26T09:51:05.903Z,62.08
2018-03-26T09:52:08.444Z,64.55
2018-03-26T09:53:10.915Z,63.50
2018-03-26T09:54:13.385Z,72.22
2018-03-26T09:55:15.884Z,66.07
2018-03-26T09:56:19.154Z,76.75
2018-03-26T09:57:21.652Z,71.82
2018-03-26T09:58:24.886Z,75.68
2018-03-26T09:59:27.932Z,78.32
2018-03-26T10:00:36.835Z,76.87
2018-03-26T10:01:45.322Z,96.15
2018-03-26T10:02:47.842Z,77.85
2018-03-26T10:03:50.347Z,68.87
2018-03-26T10:04:52.930Z,75.18
2018-03-26T10:05:56.269Z,73.72
2018-03-26T10:06:59.352Z,75.25
2018-03-26T10:08:01.899Z,69.50
2018-03-26T10:09:04.534Z,81.87
2018-03-26T10:10:07.301Z,65.68
2018-03-26T10:11:10.590Z,64.07
2018-03-26T10:12:13.126Z,72.15
2018-03-26T10:13:15.614Z,76.65
2018-03-26T10:14:19.397Z,72.95
2018-03-26T10:15:22.013Z,67.65
2018-03-26T10:16:24.802Z,69.47
2018-03-26T10:17:28.678Z,68.70
2018-03-26T10:18:32.163Z,76.62
2018-03-26T10:19:35.084Z,69.93
2018-03-26T10:20:44.670Z,70.05
2018-03-26T10:21:47.245Z,72.72
2018-03-26T10:22:49.773Z,68.45
2018-03-26T10:23:52.463Z,72.90
2018-03-26T10:24:54.972Z,73.05
2018-03-26T10:25:58.202Z,69.87
2018-03-26T10:27:01.460Z,80.45
2018-03-26T10:28:04.012Z,85.15
2018-03-26T10:29:06.470Z,74.45
2018-03-26T10:30:08.974Z,74.55
2018-03-26T10:31:11.534Z,78.62
2018-03-26T10:32:14.030Z,77.30
2018-03-26T10:33:16.505Z,70.35
2018-03-26T10:34:19.740Z,72.37
2018-03-26T10:35:23.104Z,73.25
2018-03-26T10:36:25.646Z,79.03
2018-03-26T10:37:28.107Z,73.15
2018-03-26T10:38:30.605Z,79.57
2018-03-26T10:39:33.083Z,75.95
2018-03-26T10:40:36.341Z,79.50
2018-03-26T10:41:38.964Z,71.35
2018-03-26T10:42:42.196Z,80.38
2018-03-26T10:43:45.438Z,68.35
2018-03-26T10:44:48.705Z,75.25
2018-03-26T10:45:51.263Z,78.93
2018-03-26T10:46:53.755Z,81.32
2018-03-26T10:47:56.405Z,70.93
2018-03-26T10:48:58.887Z,75.75
2018-03-26T10:50:02.139Z,83.18
2018-03-26T10:51:05.573Z,81.80
2018-03-26T10:52:08.005Z,78.30
2018-03-26T10:53:11.283Z,75.80
2018-03-26T10:54:14.686Z,77.90
2018-03-26T10:55:17.983Z,79.97
2018-03-26T10:56:20.503Z,75.43
2018-03-26T10:57:22.968Z,76.37
2018-03-26T10:58:25.472Z,75.18
2018-03-26T10:59:27.941Z,84.03
2018-03-26T11:00:31.235Z,78.57
2018-03-26T11:01:34.452Z,77.97
2018-03-26T11:02:36.972Z,81.35
2018-03-26T11:03:39.492Z,82.88
2018-03-26T11:04:42.004Z,87.40
2018-03-26T11:05:44.480Z,95.72
2018-03-26T11:06:46.941Z,83.30
2018-03-26T11:07:50.216Z,82.47
2018-03-26T11:08:53.469Z,90.70
2018-03-26T11:09:55.971Z,79.10
2018-03-26T11:10:58.461Z,84.20
2018-03-26T11:12:00.917Z,87.53
2018-03-26T11:13:03.426Z,77.90
2018-03-26T11:14:06.698Z,93.97
2018-03-26T11:15:10.136Z,87.32
2018-03-26T11:16:13.407Z,93.62
2018-03-26T11:17:15.956Z,81.75
2018-03-26T11:18:18.542Z,81.75
2018-03-26T11:19:21.276Z,87.10
2018-03-26T11:20:23.773Z,91.72
2018-03-26T11:21:27.033Z,91.85
2018-03-26T11:22:29.531Z,88.05
2018-03-26T11:23:32.803Z,86.93
2018-03-26T11:24:35.371Z,90.47
2018-03-26T11:25:37.936Z,89.60
2018-03-26T11:26:41.182Z,90.57
2018-03-26T11:27:44.522Z,93.90
2018-03-26T11:28:47.823Z,94.40
2018-03-26T11:29:50.314Z,82.82
2018-03-26T11:30:52.826Z,90.35
2018-03-26T11:31:55.318Z,93.50
2018-03-26T11:32:57.859Z,96.75
2018-03-26T11:34:00.336Z,95.90
2018-03-26T11:35:02.831Z,94.30
2018-03-26T11:36:07.363Z,90.12
2018-03-26T11:37:09.958Z,91.43
2018-03-26T11:38:12.460Z,90.38
2018-03-26T11:39:15.700Z,99.68
2018-03-26T11:40:18.998Z,92.95
2018-03-26T11:41:22.695Z,87.12
2018-03-26T11:42:25.953Z,93.68
2018-03-26T11:43:28.424Z,96.97
2018-03-26T11:44:30.890Z,87.25
2018-03-26T11:45:34.211Z,90.82
2018-03-26T11:46:36.710Z,96.93
2018-03-26T11:47:39.300Z,91.40
2018-03-26T11:48:41.817Z,93.28
2018-03-26T11:49:44.350Z,91.95
2018-03-26T11:50:47.600Z,95.72
2018-03-26T11:51:50.077Z,84.07
2018-03-26T11:52:52.607Z,89.07
2018-03-26T11:53:55.035Z,94.10
2018-03-26T11:54:59.035Z,89.82
2018-03-26T11:56:01.502Z,89.15
2018-03-26T11:57:04.004Z,89.80
2018-03-26T11:58:06.499Z,87.45
2018-03-26T11:59:09.062Z,89.62
2018-03-26T12:00:11.543Z,101.60
2018-03-26T12:01:14.790Z,91.87
2018-03-26T12:02:17.264Z,91.70
2018-03-26T12:03:19.752Z,91.60
2018-03-26T12:04:22.281Z,95.45
2018-03-26T12:05:25.419Z,101.93
2018-03-26T12:06:27.894Z,89.78
2018-03-26T12:07:30.450Z,102.15
2018-03-26T12:08:33.003Z,93.68
2018-03-26T12:09:35.474Z,95.40
2018-03-26T12:10:38.131Z,95.07
2018-03-26T12:11:41.470Z,91.43
2018-03-26T12:12:44.829Z,92.60
2018-03-26T12:13:47.395Z,96.40
2018-03-26T12:14:49.922Z,94.40
2018-03-26T12:15:52.403Z,104.25
2018-03-26T12:16:55.665Z,94.80
2018-03-26T12:17:58.153Z,99.75
2018-03-26T12:19:01.400Z,86.37
2018-03-26T12:20:16.472Z,100.57
2018-03-26T12:21:19.060Z,101.75
2018-03-26T12:22:21.594Z,88.18
2018-03-26T12:23:35.843Z,96.18
2018-03-26T12:24:50.897Z,95.28
2018-03-26T12:25:53.383Z,100.62
2018-03-26T12:26:56.417Z,96.95
2018-03-26T12:28:11.507Z,94.25
2018-03-26T12:29:25.807Z,85.70
2018-03-26T12:30:28.388Z,96.72
2018-03-26T12:31:30.891Z,79.95
2018-03-26T12:32:34.118Z,86.22
2018-03-26T12:33:48.401Z,84.90
2018-03-26T12:35:02.616Z,83.62
2018-03-26T12:36:05.862Z,82.32
2018-03-26T12:37:09.125Z,78.07
2018-03-26T12:38:11.615Z,81.45
2018-03-26T12:39:14.163Z,77.22
2018-03-26T12:41:57.880Z,68.07
2018-03-26T12:43:00.432Z,80.15
2018-03-26T12:44:02.967Z,78.20
2018-03-26T12:45:17.358Z,72.72
2018-03-26T12:46:31.914Z,79.32
2018-03-26T12:47:34.388Z,71.97
2018-03-26T12:48:36.866Z,73.70
2018-03-26T12:49:39.465Z,70.70
2018-03-26T12:50:53.727Z,73.40
2018-03-26T12:52:08.217Z,70.30
2018-03-26T12:53:11.484Z,64.47
2018-03-26T12:54:13.986Z,60.70
2018-03-26T12:55:16.514Z,64.78
2018-03-26T12:56:19.005Z,65.80
2018-03-26T12:57:33.371Z,73.32
2018-03-26T12:58:51.634Z,68.82
2018-03-26T12:59:54.167Z,66.57
2018-03-26T13:01:08.778Z,62.80
2018-03-26T13:02:23.970Z,70.97
2018-03-26T13:03:26.506Z,63.30
2018-03-26T13:04:29.181Z,74.35
2018-03-26T13:05:32.702Z,63.90
2018-03-26T13:06:35.161Z,61.58
2018-03-26T13:07:37.703Z,54.97
2018-03-26T13:08:40.947Z,75.15
2018-03-26T13:09:44.178Z,61.70
2018-03-26T13:10:47.407Z,58.67
2018-03-26T13:11:49.875Z,62.83
2018-03-26T13:12:52.374Z,59.25
2018-03-26T13:13:55.679Z,52.80
2018-03-26T13:14:58.185Z,58.20
2018-03-26T13:16:00.653Z,55.83
2018-03-26T13:17:03.110Z,53.78
2018-03-26T13:18:05.644Z,68.07
2018-03-26T13:19:08.868Z,55.92
2018-03-26T13:20:12.264Z,53.42
2018-03-26T13:21:14.713Z,58.35
2018-03-26T13:22:17.227Z,61.47
2018-03-26T13:23:19.823Z,63.28
2018-03-26T13:24:22.303Z,64.57
2018-03-26T13:25:25.580Z,59.10
2018-03-26T13:26:28.828Z,60.12
2018-03-26T13:27:31.316Z,60.78
2018-03-26T13:28:34.533Z,54.75
2018-03-26T13:29:37.003Z,55.53
2018-03-26T13:30:39.522Z,57.45
2018-03-26T13:31:42.758Z,54.40
2018-03-26T13:32:46.048Z,59.90